Time;durP1;ratioP1;P1;durP2;ratioP2;P2;SDS_P1;SDS_P2;PMS_P1;PMS_P2;Temp;Humidity;BMP_temperature;BMP_pressure;BME280_temperature;BME280_humidity;BME280_pressure;Samples;Min_cycle;Max_cycle;Signal;HPM_P1;HPM_P2
2022/04/29 00:00:18;;;;;;;7.28;0.73;;;7.30;99.90;;;;;;5076733;28;20397;-74
2022/04/29 00:02:46;;;;;;;3.25;0.85;;;7.30;99.90;;;;;;5077076;28;20028;-74
2022/04/29 00:05:13;;;;;;;4.97;1.08;;;7.30;99.90;;;;;;5077204;28;20025;-74
2022/04/29 00:07:39;;;;;;;4.93;0.90;;;7.30;99.90;;;;;;5077241;28;20082;-74
2022/04/29 00:10:12;;;;;;;6.68;1.02;;;7.20;99.90;;;;;;5076703;28;20039;-74
2022/04/29 00:12:38;;;;;;;5.85;1.30;;;7.20;99.90;;;;;;5076846;28;20378;-74
2022/04/29 00:15:04;;;;;;;9.80;3.20;;;7.20;99.90;;;;;;5076781;28;20025;-74
2022/04/29 00:17:32;;;;;;;3.33;1.42;;;7.20;99.90;;;;;;5077173;28;20041;-74
2022/04/29 00:19:57;;;;;;;8.60;1.30;;;7.20;99.90;;;;;;5076732;28;20037;-74
2022/04/29 00:22:23;;;;;;;5.70;1.63;;;7.20;99.90;;;;;;5076324;28;20048;-75
2022/04/29 00:24:49;;;;;;;8.07;1.08;;;7.30;99.90;;;;;;5076666;28;20398;-74
2022/04/29 00:27:14;;;;;;;2.20;0.88;;;7.30;99.90;;;;;;5058265;28;20037;-74
2022/04/29 00:29:40;;;;;;;3.25;0.80;;;7.30;99.90;;;;;;5076612;28;20032;-74
2022/04/29 00:32:06;;;;;;;5.57;1.23;;;7.30;99.90;;;;;;5076269;28;20111;-73
2022/04/29 00:34:32;;;;;;;4.47;1.05;;;7.30;99.90;;;;;;5076102;28;20056;-74
2022/04/29 00:36:57;;;;;;;4.47;1.65;;;7.30;99.90;;;;;;5058260;28;20133;-74
2022/04/29 00:39:23;;;;;;;3.88;1.15;;;7.40;99.90;;;;;;5076171;28;20044;-74
2022/04/29 00:41:50;;;;;;;5.05;1.73;;;7.40;99.90;;;;;;5075799;28;20037;-74
2022/04/29 00:44:16;;;;;;;6.15;1.58;;;7.60;99.90;;;;;;5058240;28;20405;-74
2022/04/29 00:46:43;;;;;;;8.07;1.65;;;7.40;99.90;;;;;;5057844;28;20112;-74
2022/04/29 00:49:14;;;;;;;5.50;2.08;;;7.40;99.90;;;;;;5076246;28;20111;-74
2022/04/29 00:51:42;;;;;;;7.88;2.10;;;7.40;99.90;;;;;;5075929;28;20078;-74
2022/04/29 00:54:11;;;;;;;4.57;1.45;;;7.40;99.90;;;;;;5075827;28;20093;-74
2022/04/29 00:56:43;;;;;;;7.90;1.50;;;7.40;99.90;;;;;;5076049;28;20036;-74
2022/04/29 00:59:24;;;;;;;6.40;1.25;;;7.30;99.90;;;;;;5074558;28;20033;-74
2022/04/29 01:01:51;;;;;;;6.28;1.67;;;7.40;99.90;;;;;;5075712;28;20043;-74
2022/04/29 01:04:36;;;;;;;9.90;1.75;;;7.40;99.90;;;;;;5076019;28;20086;-74
2022/04/29 01:07:02;;;;;;;2.70;1.40;;;7.40;99.90;;;;;;5057529;28;20044;-74
2022/04/29 01:09:27;;;;;;;7.72;1.73;;;7.40;99.90;;;;;;5075514;28;20040;-74
2022/04/29 01:11:54;;;;;;;7.38;2.08;;;7.40;99.90;;;;;;5057598;28;20385;-74
2022/04/29 01:14:21;;;;;;;6.97;1.70;;;7.40;99.90;;;;;;5057572;28;20025;-74
2022/04/29 01:16:46;;;;;;;7.75;1.23;;;7.40;99.90;;;;;;5075490;28;20036;-75
2022/04/29 01:19:12;;;;;;;4.38;1.73;;;7.40;99.90;;;;;;5057325;28;20085;-75
2022/04/29 01:21:38;;;;;;;6.68;1.77;;;7.40;99.90;;;;;;5075821;28;20470;-75
2022/04/29 01:24:03;;;;;;;6.63;2.15;;;7.40;99.90;;;;;;5075150;28;20032;-75
2022/04/29 01:26:29;;;;;;;8.82;1.70;;;7.30;99.90;;;;;;5075177;28;20041;-75
2022/04/29 01:28:57;;;;;;;9.15;1.73;;;7.30;99.90;;;;;;5075345;28;20039;-75
2022/04/29 01:31:23;;;;;;;9.70;1.60;;;7.30;99.90;;;;;;5074980;28;20035;-75
2022/04/29 01:33:50;;;;;;;8.68;2.47;;;7.30;99.90;;;;;;5075372;28;20142;-75
2022/04/29 01:36:16;;;;;;;7.13;1.73;;;7.30;99.90;;;;;;5056736;28;20083;-75
2022/04/29 01:38:42;;;;;;;5.95;2.05;;;7.30;99.90;;;;;;5074996;28;20063;-76
2022/04/29 01:41:08;;;;;;;4.03;2.08;;;7.30;99.90;;;;;;5074788;28;20037;-75
2022/04/29 01:43:35;;;;;;;7.20;1.83;;;7.40;99.90;;;;;;5074774;28;20033;-75
2022/04/29 01:46:02;;;;;;;3.80;1.63;;;7.40;99.90;;;;;;5074966;28;20025;-76
2022/04/29 01:48:28;;;;;;;10.40;1.58;;;7.40;99.90;;;;;;5074849;28;20112;-76
2022/04/29 01:50:54;;;;;;;11.57;2.80;;;7.30;99.90;;;;;;5057085;28;20070;-76
2022/04/29 01:53:20;;;;;;;6.75;1.90;;;7.30;99.90;;;;;;5074734;28;20089;-75
2022/04/29 01:55:46;;;;;;;10.50;2.08;;;7.30;99.90;;;;;;5056441;28;20037;-75
2022/04/29 01:58:11;;;;;;;5.65;2.10;;;7.30;99.90;;;;;;5056915;28;20036;-78
2022/04/29 02:00:37;;;;;;;12.82;2.20;;;7.30;99.90;;;;;;5075027;28;20051;-78
2022/04/29 02:03:03;;;;;;;7.93;1.73;;;7.30;99.90;;;;;;5056529;28;20127;-76
2022/04/29 02:05:28;;;;;;;12.60;1.75;;;7.30;99.90;;;;;;5056412;28;20393;-78
2022/04/29 02:07:55;;;;;;;10.20;2.00;;;7.30;99.90;;;;;;5075165;28;20038;-75
2022/04/29 02:10:21;;;;;;;8.23;2.50;;;7.30;99.90;;;;;;5074252;28;20043;-76
2022/04/29 02:12:46;;;;;;;3.58;1.30;;;7.30;99.90;;;;;;5074520;28;20461;-75
2022/04/29 02:15:12;;;;;;;8.73;1.80;;;7.30;99.90;;;;;;5074473;28;20367;-77
2022/04/29 02:17:38;;;;;;;6.22;1.63;;;7.30;99.90;;;;;;5056267;28;20379;-77
2022/04/29 02:20:04;;;;;;;11.07;2.53;;;7.30;99.90;;;;;;5056295;28;20078;-77
2022/04/29 02:22:30;;;;;;;9.63;2.03;;;7.30;99.90;;;;;;5073862;28;20041;-77
2022/04/29 02:24:57;;;;;;;8.73;1.85;;;7.30;99.90;;;;;;5074142;28;20031;-77
2022/04/29 02:27:22;;;;;;;13.52;2.97;;;7.30;99.90;;;;;;5055988;28;20029;-77
2022/04/29 02:29:48;;;;;;;6.75;2.20;;;7.30;99.90;;;;;;5056163;28;20073;-77
2022/04/29 02:32:13;;;;;;;8.77;2.35;;;7.30;99.90;;;;;;5056005;28;20029;-77
2022/04/29 02:34:40;;;;;;;7.97;1.60;;;7.20;99.90;;;;;;5056653;28;20024;-77
2022/04/29 02:37:06;;;;;;;7.85;2.47;;;7.20;99.90;;;;;;5056006;28;20371;-77
2022/04/29 02:39:32;;;;;;;8.57;2.63;;;7.20;99.90;;;;;;5074303;28;20032;-77
2022/04/29 02:41:57;;;;;;;7.65;2.97;;;7.10;99.90;;;;;;5074165;28;20493;-77
2022/04/29 02:44:23;;;;;;;6.03;1.92;;;7.10;99.90;;;;;;5055949;28;20032;-77
2022/04/29 02:47:06;;;;;;;5.00;1.52;;;7.10;99.90;;;;;;5055899;28;20032;-77
2022/04/29 02:49:32;;;;;;;6.55;1.58;;;7.10;99.90;;;;;;5074001;28;20390;-77
2022/04/29 02:51:58;;;;;;;11.60;2.90;;;7.10;99.90;;;;;;5055582;28;20044;-77
2022/04/29 02:54:23;;;;;;;7.75;2.72;;;7.10;99.90;;;;;;5074041;28;20024;-77
2022/04/29 02:56:53;;;;;;;7.20;2.08;;;7.10;99.90;;;;;;5073728;28;20029;-77
2022/04/29 02:59:19;;;;;;;6.13;1.08;;;7.10;99.90;;;;;;5073638;28;20054;-77
2022/04/29 03:01:45;;;;;;;10.88;1.77;;;7.10;99.90;;;;;;5073402;28;20037;-75
2022/04/29 03:04:11;;;;;;;9.50;2.08;;;7.10;99.90;;;;;;5073618;28;20037;-77
2022/04/29 03:06:38;;;;;;;7.32;1.70;;;7.10;99.90;;;;;;5073580;28;20055;-78
2022/04/29 03:09:03;;;;;;;7.75;2.13;;;7.10;99.90;;;;;;5055649;28;20036;-77
2022/04/29 03:11:29;;;;;;;11.05;2.17;;;7.10;99.90;;;;;;5074364;28;20024;-77
2022/04/29 03:13:54;;;;;;;10.73;1.88;;;7.00;99.90;;;;;;5074196;28;20539;-78
2022/04/29 03:16:20;;;;;;;8.85;3.08;;;7.00;99.90;;;;;;5055616;28;20028;-77
2022/04/29 03:18:47;;;;;;;10.02;1.70;;;7.00;99.90;;;;;;5073793;28;20032;-78
2022/04/29 03:21:13;;;;;;;7.43;2.75;;;7.00;99.90;;;;;;5055313;28;20025;-77
2022/04/29 03:23:39;;;;;;;8.73;1.88;;;7.00;99.90;;;;;;5076404;28;20035;-78
2022/04/29 03:26:05;;;;;;;7.43;2.25;;;7.50;99.90;;;;;;5077705;28;20086;-78
2022/04/29 03:28:31;;;;;;;3.60;2.03;;;6.90;99.90;;;;;;5059597;28;20029;-78
2022/04/29 03:30:58;;;;;;;4.25;1.60;;;6.90;99.90;;;;;;5077352;28;20032;-77
2022/04/29 03:33:24;;;;;;;11.93;2.03;;;6.90;99.90;;;;;;5059447;28;20520;-78
2022/04/29 03:35:53;;;;;;;8.05;1.92;;;6.90;99.90;;;;;;5078417;28;20028;-78
2022/04/29 03:38:19;;;;;;;9.98;1.60;;;6.90;99.90;;;;;;5077430;28;20409;-77
2022/04/29 03:40:45;;;;;;;7.80;1.58;;;6.90;99.90;;;;;;5077379;28;20032;-77
2022/04/29 03:43:12;;;;;;;13.88;2.25;;;6.90;99.90;;;;;;5076911;28;20147;-77
2022/04/29 03:45:38;;;;;;;11.88;2.25;;;6.90;99.90;;;;;;5077655;28;20056;-77
2022/04/29 03:48:04;;;;;;;10.25;2.42;;;6.80;99.90;;;;;;5077675;28;20503;-77
2022/04/29 03:50:30;;;;;;;9.55;2.75;;;6.80;99.90;;;;;;5077255;28;20125;-77
2022/04/29 03:52:57;;;;;;;10.13;1.92;;;6.80;99.90;;;;;;5076631;28;20171;-77
2022/04/29 03:55:25;;;;;;;6.60;1.85;;;6.80;99.90;;;;;;5077398;28;20116;-77
2022/04/29 03:57:55;;;;;;;9.07;1.50;;;6.80;99.90;;;;;;5077127;28;20035;-75
2022/04/29 04:00:22;;;;;;;6.13;1.73;;;6.70;99.90;;;;;;5077224;28;20440;-77
2022/04/29 04:02:48;;;;;;;10.55;2.05;;;6.70;99.90;;;;;;5077272;28;20390;-78
2022/04/29 04:05:13;;;;;;;9.75;2.53;;;6.70;99.90;;;;;;5076572;28;20075;-77
2022/04/29 04:07:39;;;;;;;6.28;1.65;;;6.70;99.90;;;;;;5059250;28;20062;-77
2022/04/29 04:10:06;;;;;;;5.63;1.33;;;6.70;99.90;;;;;;5076472;28;20048;-77
2022/04/29 04:12:47;;;;;;;7.40;1.63;;;6.70;99.90;;;;;;5077487;28;20056;-77
2022/04/29 04:15:13;;;;;;;9.40;1.33;;;6.60;99.90;;;;;;5076781;28;20434;-77
2022/04/29 04:17:40;;;;;;;8.02;1.45;;;6.70;99.90;;;;;;5058709;28;20094;-77
2022/04/29 04:20:07;;;;;;;14.27;2.58;;;6.60;99.90;;;;;;5058703;28;20028;-77
2022/04/29 04:22:35;;;;;;;11.07;2.92;;;6.60;99.90;;;;;;5076481;28;20123;-77
2022/04/29 04:25:06;;;;;;;6.33;1.70;;;6.60;99.90;;;;;;5058716;28;20078;-77
2022/04/29 04:27:32;;;;;;;11.75;2.28;;;6.50;99.90;;;;;;5076230;28;20071;-78
2022/04/29 04:29:59;;;;;;;7.68;1.77;;;6.50;99.90;;;;;;5058342;28;20029;-78
2022/04/29 04:32:26;;;;;;;7.22;2.10;;;6.50;99.90;;;;;;5076113;28;20039;-77
2022/04/29 04:34:57;;;;;;;2.83;1.15;;;6.50;99.90;;;;;;5076491;28;20021;-77
2022/04/29 04:37:28;;;;;;;8.95;2.90;;;6.50;99.90;;;;;;5076482;28;20060;-78
2022/04/29 04:39:58;;;;;;;9.45;1.92;;;6.40;99.90;;;;;;5075864;28;20064;-77
2022/04/29 04:42:24;;;;;;;9.10;1.33;;;6.50;99.90;;;;;;5075990;28;20032;-77
2022/04/29 04:44:50;;;;;;;4.88;1.95;;;6.40;99.90;;;;;;5076005;28;20086;-77
2022/04/29 04:47:17;;;;;;;7.25;1.75;;;6.50;99.90;;;;;;5076194;28;20594;-77
2022/04/29 04:49:42;;;;;;;9.30;1.77;;;6.40;99.90;;;;;;5057958;28;20405;-77
2022/04/29 04:52:08;;;;;;;5.40;1.17;;;6.50;99.90;;;;;;5075763;28;20029;-77
2022/04/29 04:54:37;;;;;;;7.38;1.63;;;6.50;99.90;;;;;;5075851;28;20074;-76
2022/04/29 04:57:03;;;;;;;;;;;6.50;99.90;;;;;;5058536;28;20036;-77
2022/04/29 04:59:29;;;;;;;8.00;2.28;;;6.50;99.90;;;;;;5075708;28;19910;-77
2022/04/29 05:01:55;;;;;;;8.93;1.70;;;6.50;99.90;;;;;;5075846;28;20025;-77
2022/04/29 05:04:22;;;;;;;6.70;1.83;;;6.50;99.90;;;;;;5057775;28;20500;-77
2022/04/29 05:06:48;;;;;;;7.20;1.75;;;6.50;99.90;;;;;;5076114;28;20037;-77
2022/04/29 05:09:13;;;;;;;4.63;1.02;;;6.60;99.90;;;;;;5058065;28;20028;-77
2022/04/29 05:11:39;;;;;;;11.27;2.05;;;6.60;99.90;;;;;;5075377;28;20508;-76
2022/04/29 05:14:05;;;;;;;8.80;1.67;;;6.60;99.90;;;;;;5075525;28;20035;-77
2022/04/29 05:16:30;;;;;;;8.43;1.90;;;6.60;99.90;;;;;;5075132;28;20079;-77
2022/04/29 05:18:56;;;;;;;11.73;1.83;;;6.70;99.90;;;;;;5057413;28;20025;-76
2022/04/29 05:21:22;;;;;;;10.10;2.03;;;6.70;99.90;;;;;;5075103;28;20089;-77
2022/04/29 05:23:47;;;;;;;6.15;1.58;;;6.70;99.90;;;;;;5057388;28;20029;-76
2022/04/29 05:26:13;;;;;;;16.42;2.72;;;6.70;99.90;;;;;;5057123;28;20028;-77
2022/04/29 05:28:39;;;;;;;11.18;2.65;;;6.70;99.90;;;;;;5057224;28;20146;-77
2022/04/29 05:31:05;;;;;;;14.40;2.88;;;6.70;99.90;;;;;;5075484;28;20028;-77
2022/04/29 05:33:31;;;;;;;7.28;1.58;;;6.80;99.90;;;;;;5075368;28;20040;-77
2022/04/29 05:35:58;;;;;;;13.85;2.53;;;6.80;99.90;;;;;;5057296;28;20047;-77
2022/04/29 05:38:24;;;;;;;8.00;2.10;;;6.90;99.90;;;;;;5074997;28;20033;-77
2022/04/29 05:43:34;;;;;;;6.03;1.88;;;7.00;99.90;;;;;;5074789;28;20137;-77
2022/04/29 05:45:59;;;;;;;5.30;1.38;;;7.00;99.90;;;;;;5056111;28;20056;-77
2022/04/29 05:48:25;;;;;;;5.72;1.52;;;7.10;99.90;;;;;;5074738;28;20504;-76
2022/04/29 05:50:51;;;;;;;7.85;1.80;;;7.10;99.90;;;;;;5056734;28;20033;-78
2022/04/29 05:53:16;;;;;;;6.53;1.73;;;7.20;99.90;;;;;;5056774;28;20020;-76
2022/04/29 05:55:42;;;;;;;6.18;1.35;;;7.20;99.90;;;;;;5074588;28;20028;-77
2022/04/29 05:58:08;;;;;;;9.65;1.83;;;7.20;99.90;;;;;;5074583;28;20048;-76
2022/04/29 06:00:35;;;;;;;8.18;1.60;;;7.30;99.90;;;;;;5056340;28;20063;-76
2022/04/29 06:03:01;;;;;;;9.20;1.35;;;7.30;99.90;;;;;;5074323;28;20060;-76
2022/04/29 06:05:26;;;;;;;9.13;1.83;;;7.40;99.90;;;;;;5074712;28;20402;-76
2022/04/29 06:07:52;;;;;;;10.65;2.20;;;7.50;99.90;;;;;;5056428;28;20082;-76
2022/04/29 06:10:19;;;;;;;6.68;2.05;;;7.50;99.90;;;;;;5074250;28;20040;-77
2022/04/29 06:12:46;;;;;;;10.80;1.75;;;7.50;99.90;;;;;;5074196;28;20082;-77
2022/04/29 06:15:19;;;;;;;6.38;1.83;;;7.60;99.90;;;;;;5074204;28;20115;-77
2022/04/29 06:17:45;;;;;;;5.68;1.80;;;7.70;99.90;;;;;;5074555;28;20032;-77
2022/04/29 06:20:11;;;;;;;7.90;1.45;;;7.80;99.90;;;;;;5074663;28;20037;-77
2022/04/29 06:22:46;;;;;;;10.80;1.60;;;7.90;99.90;;;;;;5056153;28;20041;-77
2022/04/29 06:25:11;;;;;;;13.32;1.95;;;8.00;99.90;;;;;;5056300;28;20040;-77
2022/04/29 06:27:37;;;;;;;7.38;2.08;;;8.10;99.90;;;;;;5073929;28;20037;-76
2022/04/29 06:30:03;;;;;;;6.75;1.52;;;8.30;99.90;;;;;;5056117;28;20051;-77
2022/04/29 06:32:29;;;;;;;12.15;1.98;;;8.30;99.90;;;;;;5074222;28;20032;-75
2022/04/29 06:34:55;;;;;;;7.25;1.63;;;8.40;99.90;;;;;;5074626;28;20170;-76
2022/04/29 06:37:21;;;;;;;15.57;2.17;;;8.60;99.90;;;;;;5055816;28;20102;-77
2022/04/29 06:39:47;;;;;;;7.88;1.75;;;8.70;99.90;;;;;;5073846;28;20033;-76
2022/04/29 06:42:13;;;;;;;8.75;2.47;;;8.80;99.90;;;;;;5073787;28;20527;-77
2022/04/29 06:44:39;;;;;;;5.05;1.50;;;8.90;99.90;;;;;;5055910;28;20115;-77
2022/04/29 06:47:05;;;;;;;4.88;1.77;;;9.00;99.90;;;;;;5073677;28;20557;-77
2022/04/29 06:49:30;;;;;;;6.53;1.85;;;9.10;99.90;;;;;;5073956;28;20391;-76
2022/04/29 06:51:56;;;;;;;9.32;2.30;;;9.20;99.90;;;;;;5073985;28;20112;-76
2022/04/29 06:54:21;;;;;;;5.75;1.70;;;9.20;99.90;;;;;;5074043;28;20469;-77
2022/04/29 06:56:47;;;;;;;10.98;1.88;;;9.20;99.90;;;;;;5073121;28;20032;-77
2022/04/29 06:59:12;;;;;;;7.97;1.38;;;9.30;99.90;;;;;;5073667;28;20108;-77
2022/04/29 07:01:38;;;;;;;8.45;2.63;;;9.40;99.90;;;;;;5073931;28;20029;-77
2022/04/29 07:04:04;;;;;;;10.93;1.92;;;9.50;99.90;;;;;;5073583;28;20215;-76
2022/04/29 07:06:31;;;;;;;3.78;1.10;;;9.60;99.90;;;;;;5073540;28;20032;-77
2022/04/29 07:08:57;;;;;;;9.07;2.22;;;9.60;99.90;;;;;;5073993;28;20039;-77
2022/04/29 07:11:25;;;;;;;9.95;1.42;;;9.70;99.90;;;;;;5073847;28;20541;-78
2022/04/29 07:13:52;;;;;;;9.82;1.05;;;9.70;99.90;;;;;;5073875;28;20032;-77
2022/04/29 07:16:17;;;;;;;6.18;1.50;;;9.80;99.90;;;;;;5073708;28;20020;-76
2022/04/29 07:18:44;;;;;;;9.05;1.67;;;10.40;99.90;;;;;;5073973;28;20547;-77
2022/04/29 07:21:09;;;;;;;7.72;0.95;;;10.00;99.90;;;;;;5055711;28;20458;-77
2022/04/29 07:23:35;;;;;;;8.05;1.23;;;10.10;99.90;;;;;;5055616;28;20060;-77
2022/04/29 07:26:01;;;;;;;6.40;1.42;;;10.10;99.90;;;;;;5066864;22;20450;-77
2022/04/29 07:28:27;;;;;;;4.88;1.08;;;10.20;99.90;;;;;;5094024;28;20048;-76
2022/04/29 07:30:53;;;;;;;4.30;0.73;;;10.30;99.90;;;;;;5094222;28;20085;-76
2022/04/29 07:33:19;;;;;;;4.65;1.00;;;10.40;99.90;;;;;;5093742;28;20060;-76
2022/04/29 07:43:57;;;;;;;3.78;0.60;;;10.70;99.90;;;;;;5094375;28;20035;-77
2022/04/29 07:46:23;;;;;;;9.18;1.08;;;10.70;99.90;;;;;;5075654;28;20040;-77
2022/04/29 07:48:49;;;;;;;6.47;0.52;;;10.70;99.90;;;;;;5094285;28;20032;-76
2022/04/29 07:51:14;;;;;;;4.07;0.82;;;10.70;99.90;;;;;;5093377;28;20388;-76
2022/04/29 07:53:40;;;;;;;7.40;0.70;;;10.80;99.90;;;;;;5093709;28;20039;-77
2022/04/29 07:56:06;;;;;;;7.07;0.80;;;10.80;99.90;;;;;;5093672;28;20028;-77
2022/04/29 07:58:31;;;;;;;3.78;0.75;;;10.90;99.90;;;;;;5075407;28;20373;-76
2022/04/29 08:00:57;;;;;;;5.90;0.85;;;10.90;99.90;;;;;;5075890;28;20370;-77
2022/04/29 08:03:23;;;;;;;5.90;0.70;;;10.90;99.90;;;;;;5093787;28;20032;-76
2022/04/29 08:05:49;;;;;;;6.97;1.30;;;11.00;99.90;;;;;;5093583;28;20044;-74
2022/04/29 08:08:15;;;;;;;4.03;0.32;;;11.10;99.90;;;;;;5075735;28;20392;-77
2022/04/29 08:10:41;;;;;;;6.50;0.50;;;11.30;99.90;;;;;;5079104;28;20039;-77
2022/04/29 08:13:07;;;;;;;7.90;0.80;;;11.40;99.90;;;;;;5096998;28;20498;-78
2022/04/29 08:15:32;;;;;;;7.78;0.85;;;11.50;99.90;;;;;;5096873;28;20063;-77
2022/04/29 08:17:59;;;;;;;6.13;0.82;;;11.80;99.90;;;;;;5091586;28;20035;-77
2022/04/29 08:20:25;;;;;;;5.65;0.77;;;11.70;99.90;;;;;;5068879;28;20037;-77
2022/04/29 08:22:50;;;;;;;7.32;1.15;;;11.80;99.90;;;;;;5084882;28;20040;-77
2022/04/29 08:25:19;;;;;;;6.60;1.50;;;11.90;99.90;;;;;;5068639;28;20039;-78
2022/04/29 08:27:46;;;;;;;9.43;1.70;;;12.00;99.90;;;;;;5084082;28;20036;-76
2022/04/29 08:30:23;;;;;;;3.28;0.57;;;12.00;99.90;;;;;;5081234;28;20475;-76
2022/04/29 08:32:50;;;;;;;7.25;1.17;;;12.10;99.90;;;;;;5085189;28;20039;-76
2022/04/29 08:35:16;;;;;;;4.95;0.93;;;12.20;99.90;;;;;;5094976;28;20021;-77
2022/04/29 08:37:45;;;;;;;5.22;0.82;;;12.20;99.90;;;;;;5094908;28;20033;-77
2022/04/29 08:40:11;;;;;;;;;;;12.20;99.90;;;;;;5095662;28;20052;-76
2022/04/29 08:42:38;;;;;;;4.53;1.13;;;12.20;99.90;;;;;;5077888;28;19954;-76
2022/04/29 08:45:15;;;;;;;7.47;0.90;;;12.20;99.90;;;;;;5096464;28;20032;-76
2022/04/29 08:47:43;;;;;;;4.05;0.77;;;12.10;99.90;;;;;;5096198;28;20043;-76
2022/04/29 08:50:11;;;;;;;11.27;1.90;;;12.00;99.90;;;;;;5090400;28;20068;-76
2022/04/29 08:52:37;;;;;;;6.50;1.20;;;15.30;99.90;;;;;;5077920;28;20032;-76
2022/04/29 09:00:54;;;;;;;4.40;0.77;;;11.80;99.90;;;;;;4993812;28;20079;-79
2022/04/29 09:03:22;;;;;;;5.80;1.27;;;11.80;99.90;;;;;;4994414;28;20115;-76
2022/04/29 09:05:49;;;;;;;3.40;0.53;;;11.80;99.90;;;;;;4991950;28;20034;-76
2022/04/29 09:08:16;;;;;;;10.05;1.27;;;11.80;99.90;;;;;;4992927;28;20030;-76
2022/04/29 09:10:53;;;;;;;3.78;1.20;;;11.80;99.90;;;;;;4991791;28;20035;-77
2022/04/29 09:13:39;;;;;;;6.05;1.00;;;11.70;99.90;;;;;;4992076;28;20027;-75
2022/04/29 09:16:10;;;;;;;10.02;1.55;;;11.60;99.90;;;;;;4991656;28;20156;-75
2022/04/29 09:18:41;;;;;;;5.88;1.05;;;11.60;99.90;;;;;;4991556;28;20038;-76
2022/04/29 09:21:15;;;;;;;8.50;1.38;;;11.60;99.90;;;;;;4992363;28;20114;-76
2022/04/29 09:23:47;;;;;;;3.00;0.75;;;11.70;99.90;;;;;;4991394;28;20078;-74
2022/04/29 09:26:21;;;;;;;5.70;1.00;;;11.70;99.90;;;;;;4991233;28;20030;-74
2022/04/29 09:28:47;;;;;;;4.55;1.08;;;11.80;99.90;;;;;;4992348;28;20049;-74
2022/04/29 09:31:14;;;;;;;5.90;1.77;;;11.80;99.90;;;;;;4992454;28;20105;-74
2022/04/29 09:33:52;;;;;;;6.47;1.15;;;11.90;99.90;;;;;;4992935;28;20027;-74
2022/04/29 09:36:22;;;;;;;4.07;1.20;;;11.90;99.90;;;;;;4992233;28;20121;-74
2022/04/29 09:41:54;;;;;;;7.20;1.15;;;12.00;99.90;;;;;;4992532;28;20131;-74
2022/04/29 09:44:33;;;;;;;4.90;0.82;;;12.10;99.90;;;;;;4991160;28;20030;-74
2022/04/29 09:47:17;;;;;;;4.70;1.15;;;12.20;99.90;;;;;;4992453;28;20038;-75
2022/04/29 09:49:57;;;;;;;3.95;0.93;;;12.20;99.90;;;;;;4991002;28;20372;-74
2022/04/29 09:52:37;;;;;;;6.30;1.02;;;12.30;99.90;;;;;;4992565;28;20531;-76
2022/04/29 09:55:17;;;;;;;13.15;1.63;;;12.30;99.90;;;;;;4992343;28;20030;-75
2022/04/29 09:57:52;;;;;;;7.82;0.80;;;12.50;99.90;;;;;;4992149;28;20067;-76
2022/04/29 10:00:18;;;;;;;8.65;1.75;;;12.60;99.90;;;;;;4990855;28;20030;-77
2022/04/29 10:02:46;;;;;;;6.20;1.10;;;12.70;99.90;;;;;;4992100;28;20035;-76
2022/04/29 10:05:12;;;;;;;7.53;0.83;;;12.70;99.90;;;;;;4990973;28;20119;-76
2022/04/29 10:07:39;;;;;;;7.32;1.15;;;12.70;99.90;;;;;;4991838;28;20073;-76
2022/04/29 10:10:05;;;;;;;6.40;1.17;;;12.60;99.90;;;;;;4990870;28;20030;-76
2022/04/29 10:12:32;;;;;;;7.95;1.00;;;12.60;99.90;;;;;;4991930;28;20030;-75
2022/04/29 10:14:59;;;;;;;10.90;1.42;;;12.60;99.90;;;;;;4991926;28;20026;-75
2022/04/29 10:23:08;;;;;;;5.43;1.38;;;12.70;99.90;;;;;;4992275;28;20550;-74
2022/04/29 10:25:35;;;;;;;6.13;1.30;;;12.80;99.90;;;;;;4992370;28;20502;-74
2022/04/29 10:28:02;;;;;;;3.20;1.20;;;13.00;99.90;;;;;;4990367;28;20125;-73
2022/04/29 10:30:31;;;;;;;8.75;2.38;;;13.00;99.90;;;;;;4992250;28;20033;-74
2022/04/29 10:33:08;;;;;;;6.43;1.73;;;13.00;99.90;;;;;;4991386;28;20030;-75
2022/04/29 10:35:43;;;;;;;6.73;1.57;;;13.10;99.90;;;;;;4991520;28;20046;-75
2022/04/29 10:38:37;;;;;;;2.60;0.90;;;13.20;99.90;;;;;;4991574;28;20034;-75
2022/04/29 10:41:23;;;;;;;2.40;1.60;;;13.40;99.90;;;;;;4990434;28;20035;-75
2022/04/29 10:43:52;;;;;;;4.68;1.27;;;13.50;99.90;;;;;;4991547;28;20096;-74
2022/04/29 10:46:20;;;;;;;4.18;1.20;;;13.70;99.90;;;;;;4990177;28;20046;-74
2022/04/29 10:48:47;;;;;;;7.93;1.75;;;13.70;99.90;;;;;;4991331;28;20034;-74
2022/04/29 10:51:28;;;;;;;6.68;1.25;;;13.70;99.90;;;;;;4991617;28;20034;-74
2022/04/29 10:53:56;;;;;;;7.00;1.42;;;13.90;99.90;;;;;;4990160;28;20042;-76
2022/04/29 10:56:31;;;;;;;2.13;1.38;;;13.80;99.90;;;;;;4991210;28;20038;-74
2022/04/29 10:59:14;;;;;;;2.72;0.77;;;13.80;99.90;;;;;;4991301;28;20084;-74
2022/04/29 11:01:48;;;;;;;8.07;2.38;;;13.80;99.40;;;;;;4991285;28;20030;-74
2022/04/29 11:04:16;;;;;;;5.72;1.20;;;13.80;99.90;;;;;;4989917;28;20112;-75
2022/04/29 11:06:47;;;;;;;1.90;1.20;;;13.70;99.90;;;;;;4991506;28;20042;-76
2022/04/29 11:09:31;;;;;;;3.67;0.65;;;13.80;99.90;;;;;;4992296;28;20037;-76
2022/04/29 11:12:00;;;;;;;4.68;1.05;;;13.90;99.40;;;;;;4991075;28;20023;-77
2022/04/29 11:14:25;;;;;;;;;;;13.90;97.70;;;;;;4991406;28;20041;-75
2022/04/29 11:16:53;;;;;;;0.93;0.68;;;14.00;97.10;;;;;;4990660;28;19909;-77
2022/04/29 11:19:34;;;;;;;4.25;0.75;;;14.00;95.10;;;;;;4991058;28;20118;-76
2022/04/29 11:24:47;;;;;;;3.47;0.60;;;13.90;96.90;;;;;;4991756;28;20041;-76
2022/04/29 11:27:13;;;;;;;2.15;0.40;;;13.80;95.20;;;;;;4990863;28;20034;-76
2022/04/29 11:29:43;;;;;;;4.80;1.25;;;13.90;96.00;;;;;;4989731;28;20054;-77
2022/04/29 11:32:30;;;;;;;5.35;0.80;;;13.90;96.20;;;;;;4990730;28;20054;-76
2022/04/29 11:35:09;;;;;;;2.70;0.68;;;14.00;94.60;;;;;;4990372;28;20584;-76
2022/04/29 11:37:35;;;;;;;7.63;1.20;;;14.00;93.70;;;;;;4990841;28;20038;-76
2022/04/29 11:40:08;;;;;;;2.00;0.73;;;13.90;93.50;;;;;;4990941;28;20502;-77
2022/04/29 11:42:37;;;;;;;2.50;0.98;;;14.00;94.90;;;;;;4990948;28;20415;-76
2022/04/29 11:45:10;;;;;;;4.45;0.80;;;14.00;93.70;;;;;;4992273;28;20518;-76
2022/04/29 11:47:37;;;;;;;5.50;1.42;;;14.10;95.00;;;;;;4992780;28;20034;-76
2022/04/29 11:50:05;;;;;;;3.88;0.90;;;14.10;95.00;;;;;;4993942;28;20022;-76
2022/04/29 11:52:32;;;;;;;4.10;1.08;;;14.10;93.50;;;;;;4992734;28;20049;-75
2022/04/29 11:54:59;;;;;;;3.60;1.27;;;14.20;93.90;;;;;;4993679;28;20128;-76
2022/04/29 11:57:29;;;;;;;4.50;1.58;;;14.10;94.50;;;;;;4994032;28;20503;-76
2022/04/29 11:59:55;;;;;;;7.32;1.05;;;14.10;94.40;;;;;;4992564;28;20042;-75
2022/04/29 12:02:23;;;;;;;3.60;1.20;;;14.10;92.90;;;;;;4994276;28;20403;-77
2022/04/29 12:04:58;;;;;;;3.42;1.02;;;14.20;94.00;;;;;;4990621;28;20031;-75
2022/04/29 12:07:26;;;;;;;4.15;1.52;;;14.30;94.70;;;;;;4978966;28;20052;-75
2022/04/29 12:09:52;;;;;;;5.95;1.35;;;14.30;92.40;;;;;;4983802;28;20023;-75
2022/04/29 12:12:23;;;;;;;4.40;1.38;;;14.40;92.50;;;;;;4981774;28;20041;-75
2022/04/29 12:14:48;;;;;;;2.65;1.38;;;14.60;95.10;;;;;;4981512;28;20031;-75
2022/04/29 12:17:18;;;;;;;4.35;1.60;;;14.90;93.50;;;;;;4986155;28;20038;-75
2022/04/29 12:19:47;;;;;;;4.15;1.73;;;15.10;90.20;;;;;;4994134;28;20042;-75
2022/04/29 12:22:31;;;;;;;4.82;1.77;;;15.60;90.90;;;;;;4992305;28;20174;-74
2022/04/29 12:24:57;;;;;;;5.55;1.52;;;15.90;87.30;;;;;;4992011;28;20031;-75
2022/04/29 12:27:30;;;;;;;4.72;1.67;;;16.10;85.70;;;;;;4993394;28;20483;-74
2022/04/29 12:35:30;;;;;;;5.30;1.85;;;16.20;82.60;;;;;;4993936;28;20045;-75
2022/04/29 12:37:56;;;;;;;5.28;1.40;;;16.20;81.90;;;;;;4993488;28;20030;-74
2022/04/29 12:40:30;;;;;;;4.75;1.50;;;16.30;81.90;;;;;;4994085;28;20062;-75
2022/04/29 12:43:22;;;;;;;5.07;2.10;;;16.20;80.80;;;;;;4993504;28;20058;-74
2022/04/29 12:45:47;;;;;;;2.25;1.67;;;16.30;79.70;;;;;;4990431;28;20423;-73
2022/04/29 12:48:16;;;;;;;3.35;1.58;;;16.20;82.80;;;;;;4993252;28;20022;-75
2022/04/29 12:50:44;;;;;;;5.28;1.48;;;16.20;76.80;;;;;;4993252;28;20022;-75
2022/04/29 12:53:12;;;;;;;4.07;2.30;;;16.20;79.10;;;;;;4991936;28;20054;-74
2022/04/29 12:55:58;;;;;;;6.03;2.03;;;16.30;82.40;;;;;;4992869;28;20118;-74
2022/04/29 12:58:28;;;;;;;9.18;2.30;;;16.40;81.60;;;;;;4993133;28;20115;-75
2022/04/29 13:00:56;;;;;;;3.53;1.73;;;16.70;78.90;;;;;;4993327;28;20041;-74
2022/04/29 13:03:27;;;;;;;5.75;1.75;;;16.80;78.90;;;;;;4993570;28;20041;-75
2022/04/29 13:05:53;;;;;;;4.13;1.45;;;16.70;76.40;;;;;;4991565;28;20058;-75
2022/04/29 13:08:19;;;;;;;5.28;1.60;;;16.70;73.90;;;;;;4993202;28;20092;-75
2022/04/29 13:10:49;;;;;;;3.20;1.33;;;16.70;76.30;;;;;;4991728;28;20026;-77
2022/04/29 13:13:15;;;;;;;4.65;1.70;;;17.00;75.90;;;;;;4993539;28;20027;-77
2022/04/29 13:15:41;;;;;;;4.05;0.93;;;17.00;73.00;;;;;;4992120;28;20056;-76
2022/04/29 13:18:08;;;;;;;1.85;1.05;;;17.20;72.10;;;;;;4992871;28;20109;-76
2022/04/29 13:20:34;;;;;;;4.57;1.05;;;17.50;73.80;;;;;;4992786;28;20501;-76
2022/04/29 13:22:59;;;;;;;3.08;1.10;;;17.90;70.20;;;;;;4993296;28;20069;-76
2022/04/29 13:25:25;;;;;;;1.98;1.13;;;18.10;67.10;;;;;;4991452;28;20137;-76
2022/04/29 13:27:51;;;;;;;4.88;0.90;;;18.20;66.50;;;;;;4992590;28;20390;-75
2022/04/29 13:30:16;;;;;;;2.83;1.45;;;18.40;66.10;;;;;;4991368;28;20564;-76